Ganado, Arizona
Current Conditions -  °F | °C
As of 12:53 PM on Friday 28 Nov 2014 (Local Time) from KGUP Reporting Station
Clear Clear  
Wind Chill: 65°   Ceiling: Unl
Heat Index: 65°   Visibility: 10mi
Dew Point:   Wind: 14mph
Humidity: 10%   Direction: 230°SW
Pressure: 30.19"   Gusts: NA
Location:  35.71°N, 109.54°W
Report Text: KGUP 281953Z AUTO 23012KT 10SM CLR 18/M14 A3019 RMK AO2 SLP164 T01831144
Loading
Personal Weather Stations






























Interactive Weather Map New forecast layout! Learn more

10-Day Weather Forecast

Advertisements
Track Severe Weather on mobile